Aquone, North Carolina
Current Conditions -  °F | °C
As of 10:55 PM on Sunday 21 Dec 2014 (Local Time) from KRHP Reporting Station
Overcast Overcast  
Wind Chill: 44°   Ceiling: 2400
Heat Index: 46°   Visibility: 10mi
Dew Point: 42°   Wind: 6mph
Humidity: 84%   Direction: 210°SSW
Pressure: 30.09"   Gusts: NA
Location:  35.2235°N, 83.6438°W
Report Text: KRHP 220355Z AUTO 21005KT 10SM OVC024 08/06 A3009 RMK AO2 T00800055
Loading
Personal Weather Stations






























Interactive Weather Map New forecast layout! Learn more

10-Day Weather Forecast

Advertisements
Track Severe Weather on mobile